createdAt,value
2019-05-23T12:51:03.870Z,4.53
2019-05-23T12:53:34.014Z,4.53
2019-05-23T12:56:04.376Z,4.60
2019-05-23T12:58:35.339Z,4.50
2019-05-23T13:01:06.567Z,4.90
2019-05-23T13:03:36.973Z,5.00
2019-05-23T13:06:07.610Z,4.60
2019-05-23T13:08:37.370Z,4.57
2019-05-23T13:11:07.426Z,4.27
2019-05-23T13:13:37.232Z,4.03
2019-05-23T13:16:07.017Z,4.30
2019-05-23T13:18:36.829Z,4.43
2019-05-23T13:21:06.773Z,4.00
2019-05-23T13:23:36.834Z,4.40
2019-05-23T13:26:06.910Z,4.40
2019-05-23T13:28:36.850Z,4.37
2019-05-23T13:31:06.799Z,4.77
2019-05-23T13:33:36.554Z,4.40
2019-05-23T13:36:07.292Z,4.83
2019-05-23T13:38:37.140Z,4.57
2019-05-23T13:41:07.194Z,4.57
2019-05-23T13:43:37.043Z,4.03
2019-05-23T13:46:06.954Z,4.40
2019-05-23T13:48:36.839Z,3.80
2019-05-23T13:51:06.890Z,3.80
2019-05-23T13:53:36.917Z,4.23
2019-05-23T13:56:06.971Z,4.07
2019-05-23T13:58:37.251Z,4.27
2019-05-23T14:01:09.813Z,4.10
2019-05-23T14:03:40.195Z,4.43
2019-05-23T14:06:11.160Z,3.90
2019-05-23T14:08:41.048Z,4.53
2019-05-23T14:11:10.979Z,4.20
2019-05-23T14:13:41.293Z,4.50
2019-05-23T14:16:11.321Z,4.03
2019-05-23T14:18:43.305Z,4.10
2019-05-23T14:21:13.151Z,4.03
2019-05-23T14:23:43.070Z,3.80
2019-05-23T14:26:13.864Z,3.93
2019-05-23T14:28:43.958Z,3.70
2019-05-23T14:31:15.476Z,3.90
2019-05-23T14:34:02.528Z,3.80
2019-05-23T14:36:57.126Z,3.80
2019-05-23T14:39:32.337Z,3.77
2019-05-23T14:42:21.147Z,4.40
2019-05-23T14:44:51.165Z,3.67
2019-05-23T14:47:47.365Z,3.77
2019-05-23T14:50:34.776Z,3.37
2019-05-23T14:53:07.475Z,3.70
2019-05-23T14:55:37.395Z,3.10
2019-05-23T14:58:07.289Z,3.63
2019-05-23T15:00:37.451Z,3.43
2019-05-23T15:03:07.458Z,3.27
2019-05-23T15:05:37.979Z,3.40
2019-05-23T15:08:07.883Z,3.00
2019-05-23T15:10:37.748Z,3.57
2019-05-23T15:13:07.765Z,3.33
2019-05-23T15:15:37.611Z,3.03
2019-05-23T15:18:07.817Z,2.90
2019-05-23T15:20:37.812Z,3.53
2019-05-23T15:23:07.953Z,3.00
2019-05-23T15:25:37.879Z,2.90
2019-05-23T15:28:08.018Z,2.93
2019-05-23T15:30:37.887Z,3.60
2019-05-23T15:33:07.847Z,3.50
2019-05-23T15:35:37.759Z,3.60
2019-05-23T15:38:07.743Z,3.20
2019-05-23T15:40:37.717Z,2.90
2019-05-23T15:43:09.863Z,3.10
2019-05-23T15:45:39.415Z,3.27
2019-05-23T15:48:09.313Z,3.30
2019-05-23T15:50:44.780Z,3.33
2019-05-23T15:53:33.585Z,3.47
2019-05-23T15:56:40.601Z,3.23
2019-05-23T15:59:29.948Z,3.33
2019-05-23T16:02:21.576Z,3.17
2019-05-23T16:04:53.947Z,3.17
2019-05-23T16:07:25.129Z,3.40
2019-05-23T16:09:54.991Z,3.40
2019-05-23T16:12:25.138Z,3.30
2019-05-23T16:14:55.140Z,3.60
2019-05-23T16:17:24.960Z,3.80
2019-05-23T16:19:54.855Z,3.47
2019-05-23T16:22:24.889Z,3.47
2019-05-23T16:24:54.817Z,3.47
2019-05-23T16:27:24.721Z,3.80
2019-05-23T16:29:54.837Z,3.70
2019-05-23T16:32:24.906Z,3.20
2019-05-23T16:34:54.769Z,3.20
2019-05-23T16:37:24.679Z,3.13
2019-05-23T16:39:54.502Z,3.30
2019-05-23T16:42:24.457Z,3.27
2019-05-23T16:44:54.441Z,3.60
2019-05-23T16:47:24.660Z,3.77
2019-05-23T16:49:54.820Z,3.17
2019-05-23T16:52:24.808Z,3.60
2019-05-23T16:54:56.517Z,3.50
2019-05-23T16:57:54.503Z,3.27
2019-05-23T17:00:42.523Z,3.33
2019-05-23T17:03:19.738Z,3.53
2019-05-23T17:06:23.452Z,3.50
2019-05-23T17:09:21.142Z,3.70
2019-05-23T17:11:59.679Z,3.43
2019-05-23T17:14:41.670Z,3.70
2019-05-23T17:18:01.558Z,3.77
2019-05-23T17:20:42.695Z,3.63
2019-05-23T17:23:32.292Z,3.20
2019-05-23T17:26:23.237Z,3.40
2019-05-23T17:28:54.347Z,3.10
2019-05-23T17:31:29.483Z,3.63
2019-05-23T17:33:59.358Z,3.57
2019-05-23T17:36:29.212Z,3.07
2019-05-23T17:38:59.249Z,3.40
2019-05-23T17:41:29.160Z,3.13
2019-05-23T17:43:59.042Z,3.20
2019-05-23T17:46:28.959Z,3.27
2019-05-23T17:48:58.917Z,3.23
2019-05-23T17:51:28.720Z,3.30
2019-05-23T17:53:58.512Z,2.83
2019-05-23T17:56:28.354Z,3.10
2019-05-23T17:58:58.126Z,3.10
2019-05-23T18:01:29.784Z,3.20
2019-05-23T18:04:00.107Z,3.10
2019-05-23T18:06:30.057Z,3.30
2019-05-23T18:09:00.012Z,3.57
2019-05-23T18:11:30.074Z,3.20
2019-05-23T18:14:00.035Z,3.27
2019-05-23T18:16:30.139Z,3.60
2019-05-23T18:19:00.189Z,3.10
2019-05-23T18:21:30.102Z,3.53
2019-05-23T18:24:01.027Z,3.30
2019-05-23T18:26:30.989Z,3.40
2019-05-23T18:29:00.947Z,3.50
2019-05-23T18:31:32.835Z,3.80
2019-05-23T18:34:04.099Z,3.33
2019-05-23T18:36:34.358Z,3.50
2019-05-23T18:39:07.136Z,3.50
2019-05-23T18:41:38.155Z,3.53
2019-05-23T18:44:09.436Z,3.80
2019-05-23T18:46:43.845Z,3.87
2019-05-23T18:49:15.680Z,3.87
2019-05-23T18:51:45.973Z,3.50
2019-05-23T18:54:15.969Z,3.53
2019-05-23T18:56:45.900Z,3.57
2019-05-23T18:59:16.015Z,3.90
2019-05-23T19:01:46.395Z,3.60
2019-05-23T19:04:16.415Z,4.30
2019-05-23T19:06:47.055Z,3.77
2019-05-23T19:09:17.659Z,3.87
2019-05-23T19:11:50.155Z,4.10
2019-05-23T19:14:20.704Z,4.10
2019-05-23T19:16:50.690Z,3.90
2019-05-23T19:19:21.434Z,3.60
2019-05-23T19:21:51.462Z,4.10
2019-05-23T19:24:21.427Z,3.63
2019-05-23T19:26:51.428Z,3.60
2019-05-23T19:29:21.203Z,4.87
2019-05-23T19:31:51.732Z,3.97
2019-05-23T19:34:21.557Z,3.97
2019-05-23T19:36:51.384Z,4.07
2019-05-23T19:39:22.357Z,4.30
2019-05-23T19:41:52.242Z,4.10
2019-05-23T19:44:22.041Z,3.90
2019-05-23T19:46:51.935Z,4.10
2019-05-23T19:49:21.945Z,4.10
2019-05-23T19:51:51.930Z,4.00
2019-05-23T19:54:22.068Z,4.10
2019-05-23T19:56:52.171Z,4.10
2019-05-23T19:59:21.970Z,4.30
2019-05-23T20:02:10.707Z,3.83
2019-05-23T20:04:44.079Z,3.90
2019-05-23T20:07:15.506Z,4.00
2019-05-23T20:09:45.976Z,4.70
2019-05-23T20:12:15.921Z,4.77
2019-05-23T20:14:45.693Z,5.20
2019-05-23T20:17:16.079Z,5.60
2019-05-23T20:19:50.158Z,6.13
2019-05-23T20:22:17.675Z,6.13
2019-05-23T20:24:47.564Z,6.73
2019-05-23T20:27:17.676Z,7.47
2019-05-23T20:29:47.518Z,7.60
2019-05-23T20:32:17.784Z,7.10
2019-05-23T20:34:47.689Z,7.10
2019-05-23T20:37:18.164Z,6.77
2019-05-23T20:39:48.066Z,6.60
2019-05-23T20:42:17.973Z,6.10
2019-05-23T20:44:47.848Z,5.97
2019-05-23T20:47:17.781Z,6.33
2019-05-23T20:49:47.710Z,7.63
2019-05-23T20:52:17.659Z,7.30
2019-05-23T20:54:47.609Z,7.17
2019-05-23T20:57:17.687Z,7.17
2019-05-23T20:59:47.682Z,7.60
2019-05-23T21:02:17.706Z,8.37
2019-05-23T21:04:47.552Z,8.77
2019-05-23T21:07:17.369Z,8.87
2019-05-23T21:09:47.304Z,8.80
2019-05-23T21:12:29.319Z,9.03
2019-05-23T21:14:48.841Z,8.70
2019-05-23T21:17:18.723Z,10.10
2019-05-23T21:19:48.472Z,9.90
2019-05-23T21:22:18.388Z,9.83
2019-05-23T21:24:48.233Z,9.77
2019-05-23T21:27:18.187Z,9.53
2019-05-23T21:29:48.220Z,9.70
2019-05-23T21:32:18.053Z,10.07
2019-05-23T21:34:47.911Z,10.40
2019-05-23T21:37:17.831Z,11.10
2019-05-23T21:39:47.630Z,11.20
2019-05-23T21:42:17.536Z,11.00
2019-05-23T21:44:47.378Z,11.70
2019-05-23T21:47:17.297Z,12.37
2019-05-23T21:49:47.212Z,12.20
2019-05-23T21:52:17.019Z,11.70
2019-05-23T21:54:46.875Z,12.27
2019-05-23T21:57:16.778Z,12.43
2019-05-23T21:59:46.579Z,11.63
2019-05-23T22:02:24.356Z,11.87
2019-05-23T22:05:09.736Z,12.13
2019-05-23T22:07:39.843Z,11.43
2019-05-23T22:10:10.396Z,11.10
2019-05-23T22:12:40.378Z,10.73
2019-05-23T22:15:10.525Z,10.60
2019-05-23T22:17:40.722Z,11.73
2019-05-23T22:20:10.911Z,11.10
2019-05-23T22:22:40.811Z,10.73
2019-05-23T22:25:13.992Z,11.93
2019-05-23T22:27:44.393Z,11.43
2019-05-23T22:30:15.587Z,11.90
2019-05-23T22:32:45.488Z,11.37
2019-05-23T22:35:18.521Z,11.60
2019-05-23T22:37:48.267Z,10.93
2019-05-23T22:40:18.103Z,10.83
2019-05-23T22:42:47.930Z,11.60
2019-05-23T22:45:20.757Z,12.03
2019-05-23T22:47:50.568Z,11.30
2019-05-23T22:50:20.369Z,12.00
2019-05-23T22:52:50.207Z,11.00
2019-05-23T22:55:20.034Z,12.03
2019-05-23T22:57:49.849Z,11.50
2019-05-23T23:00:26.179Z,11.37
2019-05-23T23:02:56.279Z,11.23
2019-05-23T23:05:26.076Z,10.53
2019-05-23T23:07:56.204Z,11.63
2019-05-23T23:10:26.219Z,11.37
2019-05-23T23:12:56.025Z,11.67
2019-05-23T23:15:27.571Z,10.07
2019-05-23T23:17:57.571Z,10.77
2019-05-23T23:20:27.434Z,10.03
2019-05-23T23:22:57.263Z,9.53
2019-05-23T23:25:27.355Z,9.30
2019-05-23T23:27:57.264Z,9.30
2019-05-23T23:30:30.314Z,9.03
2019-05-23T23:33:00.163Z,9.10
2019-05-23T23:35:30.003Z,8.63
2019-05-23T23:37:59.847Z,9.13
2019-05-23T23:40:29.958Z,9.67
2019-05-23T23:42:59.763Z,10.00
2019-05-23T23:45:47.010Z,9.93
2019-05-23T23:48:34.465Z,9.83
2019-05-23T23:51:21.682Z,9.20
2019-05-23T23:54:08.828Z,9.03
2019-05-23T23:56:55.927Z,9.70
2019-05-23T23:59:24.772Z,8.77
